Time;durP1;ratioP1;P1;durP2;ratioP2;P2;SDS_P1;SDS_P2;PMS_P1;PMS_P2;Temp;Humidity;BMP_temperature;BMP_pressure;BME280_temperature;BME280_humidity;BME280_pressure;Samples;Min_cycle;Max_cycle;Signal;HPM_P1;HPM_P2
2022/06/16 00:00:29;;;;;;;6.75;4.57;;;12.90;99.90;;;;;;6080924;23;20340;-92
2022/06/16 00:02:55;;;;;;;6.07;4.70;;;12.80;99.90;;;;;;6128874;23;20017;-92
2022/06/16 00:05:24;;;;;;;8.15;5.03;;;12.60;99.90;;;;;;6080839;23;20293;-91
2022/06/16 00:07:51;;;;;;;5.97;4.35;;;12.60;99.90;;;;;;6127360;23;20143;-91
2022/06/16 00:10:20;;;;;;;7.03;4.53;;;12.60;99.90;;;;;;6131015;23;20018;-91
2022/06/16 00:12:49;;;;;;;6.47;4.57;;;12.50;99.90;;;;;;6129056;23;20603;-91
2022/06/16 00:15:17;;;;;;;7.68;4.40;;;12.40;99.90;;;;;;6104516;23;20018;-91
2022/06/16 00:17:44;;;;;;;8.80;5.30;;;12.30;99.90;;;;;;6127831;23;20017;-90
2022/06/16 00:20:12;;;;;;;8.23;4.82;;;12.20;99.90;;;;;;6103841;23;20025;-91
2022/06/16 00:22:39;;;;;;;7.45;4.85;;;12.20;99.90;;;;;;6104103;23;20033;-91
2022/06/16 00:25:08;;;;;;;8.68;5.20;;;12.30;99.90;;;;;;6128942;23;20103;-92
2022/06/16 00:27:34;;;;;;;6.78;5.47;;;12.20;99.90;;;;;;6127988;23;20098;-90
2022/06/16 00:30:00;;;;;;;8.02;5.40;;;12.20;99.90;;;;;;6101727;23;20483;-91
2022/06/16 00:32:26;;;;;;;7.03;4.90;;;12.30;99.90;;;;;;6104235;23;20093;-92
2022/06/16 00:34:52;;;;;;;7.47;5.45;;;12.20;99.90;;;;;;6127233;23;20056;-91
2022/06/16 00:37:18;;;;;;;8.10;4.93;;;12.10;99.90;;;;;;6080026;23;20024;-91
2022/06/16 00:39:45;;;;;;;7.03;5.68;;;12.10;99.90;;;;;;6103529;23;20024;-91
2022/06/16 00:42:24;;;;;;;8.18;5.07;;;12.20;99.90;;;;;;6079777;23;20018;-91
2022/06/16 00:44:56;;;;;;;6.20;5.22;;;12.20;99.90;;;;;;6129051;23;20096;-92
2022/06/16 00:47:26;;;;;;;8.15;5.72;;;12.30;99.90;;;;;;6106729;23;20108;-92
2022/06/16 00:49:56;;;;;;;8.07;5.68;;;12.30;99.90;;;;;;6127751;23;20021;-91
2022/06/16 00:52:26;;;;;;;7.22;5.25;;;12.40;99.90;;;;;;6127139;23;20013;-91
2022/06/16 00:55:12;;;;;;;8.00;5.22;;;12.40;99.90;;;;;;6128379;23;20326;-92
2022/06/16 00:57:43;;;;;;;7.50;5.50;;;12.30;99.90;;;;;;6134586;23;20087;-92
2022/06/16 01:00:47;;;;;;;7.13;5.55;;;12.30;99.90;;;;;;6130922;23;20329;-91
2022/06/16 01:03:08;;;;;;;6.90;5.78;;;12.30;99.90;;;;;;6123863;23;20395;-91
2022/06/16 01:05:34;;;;;;;6.82;5.57;;;12.20;99.90;;;;;;6081555;23;20348;-91
2022/06/16 01:08:01;;;;;;;11.38;5.68;;;12.30;99.90;;;;;;6079558;23;20020;-91
2022/06/16 01:10:40;;;;;;;9.18;5.70;;;12.20;99.90;;;;;;6079727;23;20049;-92
2022/06/16 01:16:07;;;;;;;6.82;5.60;;;12.30;99.90;;;;;;6137803;23;20017;-91
2022/06/16 01:19:01;;;;;;;7.90;4.63;;;12.20;99.90;;;;;;6104886;23;20013;-91
2022/06/16 01:21:56;;;;;;;9.88;6.03;;;12.30;99.90;;;;;;6106275;23;20344;-92
2022/06/16 01:24:51;;;;;;;8.60;5.28;;;12.20;99.90;;;;;;6103430;23;20013;-91
2022/06/16 01:27:23;;;;;;;8.73;5.30;;;12.10;99.90;;;;;;6103379;23;20018;-91
2022/06/16 01:30:05;;;;;;;8.38;6.30;;;12.00;99.90;;;;;;6105519;23;20459;-91
2022/06/16 01:32:53;;;;;;;9.70;5.60;;;12.10;99.90;;;;;;6105487;23;20013;-91
2022/06/16 01:35:51;;;;;;;8.25;6.00;;;12.10;99.90;;;;;;6113992;23;20059;-91
2022/06/16 01:38:22;;;;;;;8.80;5.57;;;12.10;99.90;;;;;;6098776;23;20088;-90
2022/06/16 01:41:25;;;;;;;8.57;6.22;;;12.10;99.90;;;;;;6105817;23;20020;-90
2022/06/16 01:44:10;;;;;;;7.75;6.20;;;12.10;99.90;;;;;;6102273;23;20021;-91
2022/06/16 01:46:40;;;;;;;9.65;5.95;;;12.10;99.90;;;;;;6105402;23;20009;-91
2022/06/16 01:49:21;;;;;;;6.85;5.68;;;12.00;99.90;;;;;;6103247;23;20014;-90
2022/06/16 01:51:58;;;;;;;8.30;6.30;;;11.90;99.90;;;;;;6105471;23;20013;-90
2022/06/16 01:54:44;;;;;;;7.88;5.40;;;11.90;99.90;;;;;;6107129;23;20063;-92
2022/06/16 01:57:39;;;;;;;9.02;5.95;;;11.90;99.90;;;;;;6103287;23;20010;-91
2022/06/16 02:00:05;;;;;;;;;;;12.00;99.90;;;;;;6129799;23;20013;-90
2022/06/16 02:02:35;;;;;;;5.82;4.90;;;12.10;99.90;;;;;;6105301;23;19920;-91
2022/06/16 02:05:11;;;;;;;7.45;5.10;;;12.10;99.90;;;;;;6106789;23;20025;-91
2022/06/16 02:07:44;;;;;;;5.60;5.00;;;12.20;99.90;;;;;;6110250;23;20107;-91
2022/06/16 02:10:17;;;;;;;7.78;5.07;;;12.20;99.90;;;;;;6107044;23;20020;-91
2022/06/16 02:12:57;;;;;;;6.15;5.47;;;12.20;99.90;;;;;;6102429;23;20022;-91
2022/06/16 02:15:41;;;;;;;7.07;5.13;;;12.30;99.90;;;;;;6122034;23;20014;-96
2022/06/16 02:18:12;;;;;;;8.25;5.60;;;12.20;99.90;;;;;;6114035;23;20010;-95
2022/06/16 02:20:51;;;;;;;5.72;4.53;;;12.20;99.90;;;;;;6115681;23;20121;-96
2022/06/16 02:23:17;;;;;;;5.78;4.57;;;12.20;99.90;;;;;;6108621;23;20102;-94
2022/06/16 02:25:45;;;;;;;7.70;6.47;;;12.30;99.90;;;;;;6084806;23;20072;-91
2022/06/16 02:28:15;;;;;;;6.88;4.93;;;12.30;99.90;;;;;;6080388;23;20021;-91
2022/06/16 02:30:54;;;;;;;7.75;4.68;;;12.30;99.90;;;;;;6080680;23;20018;-92
2022/06/16 02:33:36;;;;;;;7.95;5.18;;;12.40;99.90;;;;;;6105100;23;20085;-92
2022/06/16 02:36:17;;;;;;;8.18;5.45;;;12.40;99.90;;;;;;6102816;23;20096;-92
2022/06/16 02:38:52;;;;;;;5.90;5.30;;;12.40;99.90;;;;;;6103942;23;20071;-91
2022/06/16 02:41:38;;;;;;;8.57;5.82;;;12.30;99.90;;;;;;6140077;23;20028;-92
2022/06/16 02:44:21;;;;;;;7.22;5.15;;;12.20;99.90;;;;;;6102929;23;20383;-92
2022/06/16 02:47:01;;;;;;;9.20;6.22;;;12.20;99.90;;;;;;6103575;23;20013;-91
2022/06/16 02:49:44;;;;;;;6.75;5.32;;;12.20;99.90;;;;;;6104074;23;20014;-92
2022/06/16 02:52:19;;;;;;;7.35;5.55;;;12.10;99.90;;;;;;6104586;23;20013;-91
2022/06/16 02:55:12;;;;;;;12.32;6.28;;;12.10;99.90;;;;;;6105609;23;20104;-91
2022/06/16 02:57:44;;;;;;;8.93;5.70;;;12.10;99.90;;;;;;6115685;23;20140;-91
2022/06/16 03:00:20;;;;;;;6.90;4.60;;;12.10;99.90;;;;;;6103485;23;20022;-91
2022/06/16 03:02:46;;;;;;;6.65;4.93;;;12.10;99.90;;;;;;6104068;23;20021;-92
2022/06/16 03:05:15;;;;;;;7.32;5.10;;;12.10;99.90;;;;;;6102650;23;20084;-91
2022/06/16 03:07:43;;;;;;;6.68;5.18;;;12.00;99.90;;;;;;6105490;23;20025;-91
2022/06/16 03:10:12;;;;;;;7.38;5.30;;;12.00;99.90;;;;;;6110497;23;20041;-91
2022/06/16 03:12:38;;;;;;;8.77;5.72;;;12.00;99.90;;;;;;6104385;23;20009;-91
2022/06/16 03:15:05;;;;;;;11.25;6.47;;;12.00;99.90;;;;;;6081757;23;20065;-91
2022/06/16 03:17:31;;;;;;;9.43;5.63;;;11.50;99.90;;;;;;6114218;23;20036;-91
2022/06/16 03:19:58;;;;;;;7.60;5.28;;;12.00;99.90;;;;;;6089376;23;20348;-91
2022/06/16 03:22:24;;;;;;;9.95;5.85;;;12.00;99.90;;;;;;6109724;23;20017;-91
2022/06/16 03:24:50;;;;;;;7.22;5.03;;;12.00;99.90;;;;;;6079629;23;20105;-91
2022/06/16 03:27:17;;;;;;;8.60;5.85;;;12.00;99.90;;;;;;6078567;23;20024;-91
2022/06/16 03:29:45;;;;;;;6.03;4.90;;;12.00;99.90;;;;;;6101379;23;20014;-91
2022/06/16 03:32:11;;;;;;;7.63;5.80;;;11.90;99.90;;;;;;6084119;23;20114;-91
2022/06/16 03:34:37;;;;;;;7.20;6.03;;;11.90;99.90;;;;;;6085974;23;20017;-91
2022/06/16 03:37:03;;;;;;;7.90;6.13;;;11.80;99.90;;;;;;6078950;23;20017;-92
2022/06/16 03:39:29;;;;;;;9.40;5.90;;;11.70;99.90;;;;;;6076951;23;20448;-91
2022/06/16 03:41:55;;;;;;;10.93;6.03;;;11.60;99.90;;;;;;6078586;23;20023;-91
2022/06/16 03:44:21;;;;;;;7.07;6.38;;;11.60;99.90;;;;;;6081264;23;20455;-91
2022/06/16 03:46:47;;;;;;;10.52;6.13;;;11.60;99.90;;;;;;6079897;23;20021;-91
2022/06/16 03:49:16;;;;;;;7.13;6.03;;;11.60;99.90;;;;;;6078598;23;20017;-92
2022/06/16 03:51:41;;;;;;;11.57;5.95;;;11.60;99.90;;;;;;6080020;23;20572;-91
2022/06/16 03:54:07;;;;;;;7.50;6.20;;;11.60;99.90;;;;;;6078284;23;20020;-91
2022/06/16 03:56:33;;;;;;;8.05;6.07;;;11.70;99.90;;;;;;6080420;23;20010;-91
2022/06/16 03:58:59;;;;;;;11.25;6.63;;;11.70;99.90;;;;;;6081282;23;20045;-91
2022/06/16 04:01:25;;;;;;;8.32;5.95;;;11.60;99.90;;;;;;6080354;23;20039;-92
2022/06/16 04:04:00;;;;;;;8.23;6.38;;;11.80;99.90;;;;;;6084330;23;20018;-91
2022/06/16 04:06:31;;;;;;;8.65;6.13;;;11.90;99.90;;;;;;6085458;23;20121;-91
2022/06/16 04:08:58;;;;;;;6.57;5.97;;;12.00;99.90;;;;;;6104692;23;20091;-91
2022/06/16 04:11:27;;;;;;;8.88;6.10;;;12.00;99.90;;;;;;6102746;23;20388;-92
2022/06/16 04:13:56;;;;;;;8.88;6.53;;;12.20;99.90;;;;;;6083492;23;20598;-92
2022/06/16 04:16:23;;;;;;;11.13;6.60;;;12.30;99.90;;;;;;6104859;23;20024;-92
2022/06/16 04:18:49;;;;;;;7.63;6.30;;;12.30;99.90;;;;;;6104706;23;20035;-91
2022/06/16 04:21:15;;;;;;;8.60;6.78;;;12.40;99.90;;;;;;6101488;23;20017;-91
2022/06/16 04:23:41;;;;;;;10.40;7.05;;;12.40;99.90;;;;;;6079586;23;20075;-92
2022/06/16 04:26:08;;;;;;;11.68;6.60;;;12.50;99.90;;;;;;6104239;23;20024;-91
2022/06/16 04:28:34;;;;;;;8.52;6.65;;;12.40;99.90;;;;;;6104610;23;20399;-92
2022/06/16 04:30:59;;;;;;;9.60;6.18;;;12.50;99.90;;;;;;6081051;23;20014;-92
2022/06/16 04:33:26;;;;;;;8.52;6.57;;;12.50;99.90;;;;;;6079624;23;20025;-92
2022/06/16 04:35:52;;;;;;;8.65;6.55;;;12.50;99.90;;;;;;6103409;23;20203;-92
2022/06/16 04:38:19;;;;;;;10.15;6.93;;;12.50;99.90;;;;;;6079883;23;20009;-92
2022/06/16 04:40:45;;;;;;;10.00;6.88;;;12.50;99.90;;;;;;6081751;23;20017;-92
2022/06/16 04:43:14;;;;;;;7.63;6.60;;;12.60;99.90;;;;;;6080982;23;20400;-92
2022/06/16 04:45:44;;;;;;;7.82;6.47;;;12.60;99.90;;;;;;6081320;23;20101;-92
2022/06/16 04:48:10;;;;;;;9.75;6.53;;;12.70;99.90;;;;;;6106520;23;20392;-91
2022/06/16 04:50:37;;;;;;;9.77;7.00;;;12.80;99.90;;;;;;6104838;23;20149;-92
2022/06/16 04:53:03;;;;;;;7.50;6.72;;;12.80;99.90;;;;;;6103032;23;20013;-91
2022/06/16 04:55:30;;;;;;;10.85;7.07;;;13.00;99.90;;;;;;6111672;23;20028;-92
2022/06/16 04:57:57;;;;;;;8.77;6.35;;;13.10;99.90;;;;;;6086718;23;20013;-92
2022/06/16 05:00:23;;;;;;;14.07;7.03;;;13.20;99.90;;;;;;6106375;23;20021;-92
2022/06/16 05:02:49;;;;;;;9.30;6.68;;;13.20;99.90;;;;;;6085364;23;20021;-92
2022/06/16 05:05:15;;;;;;;7.68;6.30;;;13.30;99.90;;;;;;6100783;23;20025;-92
2022/06/16 05:07:41;;;;;;;9.73;6.72;;;13.40;99.90;;;;;;6079807;23;20311;-92
2022/06/16 05:10:08;;;;;;;8.23;6.80;;;13.50;99.90;;;;;;6080327;23;20028;-91
2022/06/16 05:12:34;;;;;;;11.32;6.80;;;13.60;99.90;;;;;;6079525;23;20010;-92
2022/06/16 05:15:00;;;;;;;9.95;6.30;;;13.90;99.90;;;;;;6079766;23;20402;-92
2022/06/16 05:17:29;;;;;;;8.38;5.78;;;14.00;99.90;;;;;;6080391;23;20100;-91
2022/06/16 05:19:55;;;;;;;7.45;5.10;;;14.10;99.90;;;;;;6088774;23;20013;-92
2022/06/16 05:22:21;;;;;;;7.50;4.40;;;14.20;99.90;;;;;;6081510;23;20159;-91
2022/06/16 05:24:47;;;;;;;5.15;4.43;;;14.30;99.90;;;;;;6080960;23;20032;-91
2022/06/16 05:27:13;;;;;;;6.18;4.30;;;14.40;99.90;;;;;;6080888;23;20020;-92
2022/06/16 05:29:39;;;;;;;8.07;4.82;;;14.50;99.90;;;;;;6086877;23;20014;-92
2022/06/16 05:32:05;;;;;;;5.32;3.88;;;14.60;99.90;;;;;;6089300;23;20010;-92
2022/06/16 05:34:31;;;;;;;8.00;3.97;;;14.70;99.90;;;;;;6084171;23;20014;-92
2022/06/16 05:36:57;;;;;;;4.10;3.28;;;14.70;99.90;;;;;;6081386;23;20047;-92
2022/06/16 05:39:23;;;;;;;5.65;2.83;;;14.70;99.90;;;;;;6081134;23;20484;-92
2022/06/16 05:41:49;;;;;;;5.45;2.70;;;14.80;99.90;;;;;;6082067;23;20017;-91
2022/06/16 05:44:15;;;;;;;5.57;2.47;;;14.80;99.90;;;;;;6080677;23;20092;-91
2022/06/16 05:46:41;;;;;;;7.90;2.90;;;14.90;99.90;;;;;;6080635;23;20337;-92
2022/06/16 05:49:07;;;;;;;3.70;2.47;;;14.90;99.90;;;;;;6081948;23;20021;-90
2022/06/16 05:51:33;;;;;;;3.70;2.40;;;15.00;99.90;;;;;;6081208;23;20013;-92
2022/06/16 05:53:59;;;;;;;8.27;3.03;;;15.00;99.90;;;;;;6081946;23;20013;-91
2022/06/16 05:56:25;;;;;;;4.72;2.60;;;15.10;99.90;;;;;;6104541;23;20473;-93
2022/06/16 05:58:51;;;;;;;4.20;2.30;;;15.20;99.90;;;;;;6082788;23;20017;-93
2022/06/16 06:01:17;;;;;;;4.35;2.17;;;15.20;99.90;;;;;;6099199;23;20115;-92
2022/06/16 06:03:43;;;;;;;5.53;2.20;;;15.20;99.90;;;;;;6109301;23;20096;-92
2022/06/16 06:06:10;;;;;;;3.17;1.90;;;15.30;99.90;;;;;;6134777;23;20059;-92
2022/06/16 06:17:21;;;;;;;4.07;1.95;;;15.40;99.90;;;;;;6141500;23;20352;-94
2022/06/16 06:19:52;;;;;;;3.20;1.98;;;15.40;99.90;;;;;;6137838;23;20013;-93
2022/06/16 06:22:23;;;;;;;3.53;1.75;;;15.50;99.90;;;;;;6090133;23;20017;-94
2022/06/16 06:24:56;;;;;;;2.47;1.90;;;15.60;99.90;;;;;;6112866;23;20111;-93
2022/06/16 06:27:34;;;;;;;4.95;2.05;;;15.60;99.90;;;;;;6136796;23;20402;-94
2022/06/16 06:30:04;;;;;;;3.03;1.98;;;15.80;99.90;;;;;;6136375;23;20091;-93
2022/06/16 06:32:34;;;;;;;7.72;2.55;;;15.90;99.90;;;;;;6137391;23;20020;-92
2022/06/16 06:35:00;;;;;;;3.60;2.10;;;16.10;99.90;;;;;;6145298;23;20013;-93
2022/06/16 06:37:29;;;;;;;3.88;2.30;;;16.00;99.90;;;;;;6100274;23;20017;-92
2022/06/16 06:39:56;;;;;;;4.90;2.35;;;16.10;99.90;;;;;;6116818;23;20096;-92
2022/06/16 06:42:22;;;;;;;5.07;2.80;;;16.40;99.90;;;;;;6114696;23;20020;-93
2022/06/16 06:44:48;;;;;;;3.13;2.08;;;16.50;99.90;;;;;;6138395;23;20017;-95
2022/06/16 06:47:24;;;;;;;3.47;2.30;;;16.70;99.90;;;;;;6112133;23;20036;-93
2022/06/16 06:49:55;;;;;;;5.88;2.00;;;17.00;99.90;;;;;;6134804;23;20340;-93
2022/06/16 06:52:22;;;;;;;3.00;2.22;;;17.20;99.90;;;;;;6111636;23;20116;-94
2022/06/16 06:54:48;;;;;;;5.35;2.33;;;17.40;99.90;;;;;;6101208;23;20335;-94
2022/06/16 06:57:34;;;;;;;4.15;2.05;;;17.70;99.90;;;;;;6086738;23;20020;-93
2022/06/16 07:00:00;;;;;;;4.32;1.92;;;18.00;99.90;;;;;;6107354;23;20083;-94
2022/06/16 07:02:33;;;;;;;2.53;1.60;;;18.10;99.90;;;;;;6081587;23;20017;-94
2022/06/16 07:04:59;;;;;;;2.33;1.70;;;18.00;99.90;;;;;;6107514;23;20056;-94
2022/06/16 07:07:25;;;;;;;5.20;1.92;;;18.00;99.90;;;;;;6084664;23;20022;-94
2022/06/16 07:09:52;;;;;;;4.15;1.80;;;18.00;99.90;;;;;;6107546;23;20024;-93
2022/06/16 07:12:19;;;;;;;3.92;1.67;;;18.10;99.90;;;;;;6089112;23;20014;-95
2022/06/16 07:14:51;;;;;;;4.90;1.65;;;18.30;99.90;;;;;;6091546;23;20009;-95
2022/06/16 07:17:23;;;;;;;4.18;1.48;;;18.50;99.90;;;;;;6112112;23;20018;-92
2022/06/16 07:19:49;;;;;;;2.10;1.42;;;18.70;99.90;;;;;;6113703;23;20017;-96
2022/06/16 07:22:18;;;;;;;3.65;2.17;;;18.80;99.90;;;;;;6101272;23;20070;-95
2022/06/16 07:24:57;;;;;;;3.42;1.63;;;19.00;99.90;;;;;;6125033;23;19997;-95
2022/06/16 07:27:24;;;;;;;3.13;1.58;;;18.90;99.90;;;;;;6105774;23;20029;-96
2022/06/16 07:29:56;;;;;;;3.22;1.48;;;19.00;99.90;;;;;;6112342;23;20100;-90
2022/06/16 07:32:22;;;;;;;3.50;1.60;;;18.70;99.90;;;;;;6088686;23;20084;-96
2022/06/16 07:34:49;;;;;;;2.42;1.40;;;18.70;99.90;;;;;;6089582;23;20056;-96
2022/06/16 07:37:16;;;;;;;2.83;1.48;;;18.90;99.90;;;;;;6090990;23;20013;-96
2022/06/16 07:39:42;;;;;;;3.85;1.50;;;18.90;99.90;;;;;;6118131;23;20025;-95
2022/06/16 07:42:09;;;;;;;2.83;1.63;;;18.70;99.90;;;;;;6092477;23;20100;-96
2022/06/16 07:44:36;;;;;;;2.97;1.70;;;18.80;99.90;;;;;;6112329;23;20103;-95
2022/06/16 07:47:05;;;;;;;5.57;1.63;;;18.80;99.90;;;;;;6118446;23;20085;-96
2022/06/16 07:49:32;;;;;;;5.15;1.63;;;19.00;99.90;;;;;;6116302;23;20020;-96
2022/06/16 07:52:00;;;;;;;2.80;1.45;;;19.20;99.90;;;;;;6094637;23;20014;-95
2022/06/16 07:54:27;;;;;;;3.38;1.77;;;19.00;99.90;;;;;;6116572;23;20340;-96
2022/06/16 07:56:55;;;;;;;3.65;1.73;;;19.10;99.90;;;;;;6089368;23;20048;-95
2022/06/16 07:59:24;;;;;;;2.33;1.50;;;18.80;99.90;;;;;;6112414;23;20244;-95
2022/06/16 08:01:54;;;;;;;3.20;1.70;;;19.10;99.90;;;;;;6118284;23;20481;-95
2022/06/16 08:04:30;;;;;;;2.38;1.70;;;19.10;99.90;;;;;;6143634;23;20032;-96
2022/06/16 08:07:02;;;;;;;4.03;1.70;;;19.30;99.90;;;;;;6120417;23;20025;-95
2022/06/16 08:09:33;;;;;;;5.43;2.03;;;19.20;99.90;;;;;;6123542;23;20017;-94
2022/06/16 08:12:09;;;;;;;3.05;1.52;;;19.40;99.90;;;;;;6139878;23;20070;-94
2022/06/16 08:14:38;;;;;;;5.75;1.95;;;19.20;99.90;;;;;;6093720;23;20009;-95
2022/06/16 08:17:09;;;;;;;1.85;1.30;;;19.40;99.90;;;;;;6144294;23;20013;-95
2022/06/16 08:19:35;;;;;;;3.15;1.90;;;19.50;99.90;;;;;;6144673;23;20017;-95
2022/06/16 08:22:01;;;;;;;3.60;1.80;;;19.40;99.90;;;;;;6100111;23;20019;-95
2022/06/16 08:24:27;;;;;;;3.60;2.03;;;19.30;99.90;;;;;;6124228;23;20016;-96
2022/06/16 08:26:53;;;;;;;4.25;2.17;;;19.50;99.90;;;;;;6104726;23;20099;-94
2022/06/16 08:29:21;;;;;;;4.40;2.22;;;19.60;99.90;;;;;;6154736;23;20013;-95
2022/06/16 08:31:50;;;;;;;2.58;2.13;;;19.50;99.90;;;;;;6125406;23;20021;-96
2022/06/16 08:34:16;;;;;;;3.38;2.15;;;19.60;99.90;;;;;;6098835;23;20013;-96
2022/06/16 08:36:42;;;;;;;5.60;2.30;;;19.80;99.90;;;;;;6094974;23;20017;-95
2022/06/16 08:39:08;;;;;;;4.03;2.63;;;19.90;99.90;;;;;;6096322;23;20073;-94
2022/06/16 08:41:47;;;;;;;4.82;2.63;;;19.90;99.90;;;;;;6140107;23;20092;-95
2022/06/16 08:44:25;;;;;;;5.00;2.45;;;20.10;99.90;;;;;;6174157;23;20013;-94
2022/06/16 08:47:15;;;;;;;4.05;3.22;;;20.10;99.90;;;;;;6146481;23;20028;-93
2022/06/16 08:49:46;;;;;;;5.13;2.53;;;20.10;99.90;;;;;;6140409;23;20028;-94
2022/06/16 08:52:46;;;;;;;3.90;2.30;;;20.30;99.90;;;;;;6139536;23;20013;-94
2022/06/16 08:55:46;;;;;;;4.55;2.70;;;20.40;99.90;;;;;;6143702;23;20482;-96
2022/06/16 08:58:27;;;;;;;3.03;2.10;;;20.60;99.90;;;;;;6031417;23;20026;-92
2022/06/16 09:01:02;;;;;;;4.00;2.10;;;20.80;99.90;;;;;;6133082;23;20029;-95
2022/06/16 09:03:30;;;;;;;;;;;21.00;99.90;;;;;;6117675;23;20024;-94
2022/06/16 09:06:20;;;;;;;4.65;2.33;;;21.10;99.90;;;;;;6116658;23;19920;-96
2022/06/16 09:08:57;;;;;;;3.75;2.65;;;21.30;99.90;;;;;;6113242;23;20013;-96
2022/06/16 09:11:42;;;;;;;5.03;2.47;;;21.70;99.90;;;;;;6119885;23;20014;-96
2022/06/16 09:15:10;;;;;;;4.68;2.40;;;21.80;99.90;;;;;;6111997;23;20014;-92
2022/06/16 09:17:52;;;;;;;2.67;2.03;;;21.60;99.90;;;;;;6135148;23;20013;-96
2022/06/16 09:20:40;;;;;;;4.00;2.25;;;21.60;99.90;;;;;;6122849;23;20070;-93
2022/06/16 09:23:36;;;;;;;5.55;2.30;;;21.60;99.90;;;;;;6117199;23;20084;-95
2022/06/16 09:26:25;;;;;;;3.25;2.60;;;21.80;99.90;;;;;;6120375;23;20018;-96
2022/06/16 09:29:28;;;;;;;4.15;2.42;;;21.90;99.90;;;;;;6119389;23;20013;-94
2022/06/16 09:32:18;;;;;;;3.63;2.70;;;21.80;99.90;;;;;;6139564;23;20014;-94
2022/06/16 09:34:44;;;;;;;3.13;2.47;;;21.70;99.90;;;;;;6110901;23;20017;-94
2022/06/16 09:37:31;;;;;;;4.07;2.45;;;21.60;99.90;;;;;;6122712;23;20444;-93
2022/06/16 09:40:13;;;;;;;3.72;2.47;;;21.60;99.90;;;;;;6142952;23;20017;-95
2022/06/16 09:42:46;;;;;;;3.80;2.50;;;21.50;99.90;;;;;;6119353;23;20018;-94
2022/06/16 09:45:26;;;;;;;4.10;2.70;;;22.00;99.90;;;;;;6137227;23;20106;-94
2022/06/16 09:48:18;;;;;;;4.05;2.50;;;22.50;99.90;;;;;;6116235;23;20017;-94
2022/06/16 09:51:02;;;;;;;4.35;2.05;;;23.00;99.90;;;;;;6115392;23;20017;-94
2022/06/16 09:53:45;;;;;;;5.60;2.50;;;22.80;99.90;;;;;;6113577;23;20052;-91
2022/06/16 09:56:27;;;;;;;3.63;2.37;;;23.20;99.90;;;;;;6118924;23;20021;-95
2022/06/16 09:58:57;;;;;;;3.80;2.45;;;23.20;99.90;;;;;;6116361;23;20248;-95
2022/06/16 10:01:30;;;;;;;4.65;2.60;;;23.20;99.90;;;;;;6133461;23;20048;-95
2022/06/16 10:04:02;;;;;;;4.80;2.65;;;23.50;99.90;;;;;;6166095;23;20013;-95
2022/06/16 10:07:01;;;;;;;2.80;2.20;;;23.60;99.90;;;;;;6150328;23;20027;-96
2022/06/16 10:09:57;;;;;;;3.65;2.30;;;22.80;99.90;;;;;;6150283;23;20017;-95
2022/06/16 10:12:45;;;;;;;3.25;2.40;;;23.20;99.90;;;;;;6146089;23;20023;-91
2022/06/16 10:15:32;;;;;;;4.15;2.70;;;23.40;99.90;;;;;;6148265;23;20009;-95
2022/06/16 10:17:59;;;;;;;2.60;2.40;;;23.50;99.90;;;;;;6176827;23;20052;-93
2022/06/16 10:20:28;;;;;;;2.88;2.40;;;23.80;99.90;;;;;;6142790;23;20024;-94
2022/06/16 10:23:09;;;;;;;3.03;2.28;;;23.80;99.90;;;;;;6151230;23;20017;-92
2022/06/16 10:25:41;;;;;;;3.15;2.40;;;23.60;95.90;;;;;;6149058;23;20100;-92
2022/06/16 10:28:31;;;;;;;3.17;2.25;;;23.60;96.30;;;;;;6143747;23;20020;-93
2022/06/16 10:31:02;;;;;;;3.55;2.25;;;23.30;76.60;;;;;;6143420;23;20088;-88
2022/06/16 10:33:34;;;;;;;3.40;2.00;;;24.00;91.00;;;;;;6141480;23;20903;-95
2022/06/16 10:36:37;;;;;;;4.60;2.80;;;23.40;87.20;;;;;;6147301;23;20037;-95
2022/06/16 10:39:23;;;;;;;4.72;2.40;;;24.00;79.00;;;;;;6153288;23;20324;-93
2022/06/16 10:42:04;;;;;;;2.70;2.40;;;24.20;53.00;;;;;;6153126;23;20447;-94
2022/06/16 10:44:34;;;;;;;4.03;2.80;;;24.30;65.50;;;;;;6148482;23;20017;-96
2022/06/16 10:47:03;;;;;;;5.20;2.60;;;24.50;63.40;;;;;;6145328;23;20017;-94
2022/06/16 10:49:33;;;;;;;2.75;2.30;;;24.90;47.30;;;;;;6145144;23;20020;-95
2022/06/16 10:52:17;;;;;;;2.92;2.63;;;24.30;17.20;;;;;;6141658;23;20048;-96
2022/06/16 10:55:08;;;;;;;3.38;2.90;;;24.00;17.00;;;;;;6143711;23;20063;-94
2022/06/16 10:57:51;;;;;;;3.80;2.47;;;23.90;9.10;;;;;;6130650;23;20040;-95
2022/06/16 11:00:24;;;;;;;6.03;2.78;;;24.40;13.30;;;;;;6145074;23;20017;-93
2022/06/16 11:02:59;;;;;;;4.38;2.92;;;24.30;21.20;;;;;;6149342;23;20095;-92
2022/06/16 11:05:27;;;;;;;6.22;2.88;;;24.20;13.30;;;;;;6141427;23;20021;-93
2022/06/16 11:08:22;;;;;;;4.18;2.40;;;24.70;6.50;;;;;;6150565;23;20120;-94
2022/06/16 11:10:59;;;;;;;4.65;3.28;;;24.70;1.00;;;;;;6109574;23;20013;-96
2022/06/16 11:13:32;;;;;;;5.78;2.78;;;24.50;1.00;;;;;;6173844;23;20031;-94
2022/06/16 11:16:04;;;;;;;8.10;3.10;;;24.70;1.00;;;;;;6150051;23;20013;-95
2022/06/16 11:18:39;;;;;;;3.20;2.60;;;24.70;1.00;;;;;;6153759;23;20036;-96
2022/06/16 11:21:58;;;;;;;3.55;2.30;;;24.50;1.00;;;;;;6155273;23;20024;-96
2022/06/16 11:24:32;;;;;;;2.50;2.30;;;24.40;1.00;;;;;;6152721;23;20041;-95
2022/06/16 11:27:12;;;;;;;4.18;2.30;;;24.10;1.00;;;;;;6149659;23;20013;-94
2022/06/16 11:29:39;;;;;;;4.10;2.83;;;24.00;1.00;;;;;;6145482;23;20020;-93
2022/06/16 11:32:17;;;;;;;3.03;2.50;;;24.40;1.00;;;;;;6146506;23;20017;-95
2022/06/16 11:34:44;;;;;;;5.35;2.58;;;24.70;1.00;;;;;;6147758;23;20020;-94
2022/06/16 11:37:12;;;;;;;3.40;2.35;;;25.00;1.00;;;;;;6144689;23;20019;-96
2022/06/16 11:39:49;;;;;;;5.30;2.47;;;25.10;1.00;;;;;;6144650;23;20087;-95
2022/06/16 11:42:49;;;;;;;3.55;2.30;;;25.00;1.00;;;;;;6148695;23;20017;-94
2022/06/16 11:45:55;;;;;;;3.53;2.08;;;24.80;1.00;;;;;;6153765;23;20013;-96
2022/06/16 11:48:23;;;;;;;2.58;2.10;;;25.30;1.00;;;;;;6140757;23;20040;-93
2022/06/16 11:51:18;;;;;;;3.90;2.38;;;25.30;1.00;;;;;;6143503;23;20073;-94
2022/06/16 11:53:49;;;;;;;3.83;2.40;;;25.10;1.00;;;;;;6143229;23;20397;-94
2022/06/16 11:56:24;;;;;;;2.50;1.90;;;24.70;1.00;;;;;;6142770;23;20063;-95
2022/06/16 11:58:56;;;;;;;4.38;2.10;;;24.70;1.00;;;;;;6151181;23;20091;-95
2022/06/16 12:01:41;;;;;;;3.13;2.28;;;24.70;1.00;;;;;;6148823;23;20013;-95
2022/06/16 12:04:35;;;;;;;2.83;2.13;;;24.60;1.00;;;;;;6176148;23;20045;-95
2022/06/16 12:07:50;;;;;;;3.30;2.10;;;24.40;1.00;;;;;;6145456;23;20020;-95
2022/06/16 12:10:44;;;;;;;2.58;2.10;;;24.70;1.00;;;;;;6144852;23;19997;-94
2022/06/16 12:13:45;;;;;;;3.10;2.28;;;24.50;1.00;;;;;;6148482;23;20059;-95
2022/06/16 12:16:27;;;;;;;4.50;2.03;;;24.60;1.00;;;;;;6146468;23;20024;-95
2022/06/16 12:18:59;;;;;;;3.08;2.03;;;24.90;1.00;;;;;;6172324;23;20021;-94
2022/06/16 12:21:53;;;;;;;3.70;2.30;;;24.70;1.00;;;;;;6149321;23;20017;-96
2022/06/16 12:24:42;;;;;;;6.03;2.30;;;24.50;1.00;;;;;;6152371;23;20000;-95
2022/06/16 12:27:16;;;;;;;3.20;2.30;;;24.60;1.00;;;;;;6144505;23;20027;-94
2022/06/16 12:29:54;;;;;;;4.38;2.28;;;25.30;1.00;;;;;;6144876;23;20023;-94
2022/06/16 12:32:52;;;;;;;3.80;2.15;;;25.20;1.00;;;;;;6143320;23;20372;-94
2022/06/16 12:39:17;;;;;;;3.88;2.05;;;25.20;1.00;;;;;;6197580;23;20012;-93
2022/06/16 12:41:51;;;;;;;4.25;2.00;;;24.60;1.00;;;;;;6147880;23;20017;-95
2022/06/16 12:44:30;;;;;;;6.35;2.25;;;23.90;1.00;;;;;;6144058;23;20017;-93
2022/06/16 12:47:04;;;;;;;6.43;2.33;;;24.30;1.00;;;;;;6146285;23;20456;-94
2022/06/16 12:49:41;;;;;;;;;;;24.30;1.00;;;;;;6145210;23;20041;-95
2022/06/16 12:52:15;;;;;;;4.03;2.13;;;24.50;1.00;;;;;;6146321;23;20004;-94
2022/06/16 12:55:02;;;;;;;;;;;24.60;1.00;;;;;;6149455;23;20021;-93
2022/06/16 12:57:42;;;;;;;4.30;2.60;;;24.40;1.00;;;;;;6146806;23;19912;-93
2022/06/16 13:00:13;;;;;;;3.55;2.00;;;24.50;1.00;;;;;;6146526;23;20020;-96
2022/06/16 13:02:50;;;;;;;2.60;2.05;;;24.60;1.00;;;;;;6114247;23;20535;-94
2022/06/16 13:05:20;;;;;;;3.97;2.03;;;24.80;1.00;;;;;;6116747;23;20021;-94
2022/06/16 13:07:54;;;;;;;2.05;1.85;;;24.70;1.00;;;;;;6091448;23;20021;-95
2022/06/16 13:10:25;;;;;;;3.42;2.10;;;24.80;1.00;;;;;;6126235;23;20103;-94
2022/06/16 13:13:01;;;;;;;3.15;2.17;;;24.70;1.00;;;;;;6119912;23;20017;-93
2022/06/16 13:15:44;;;;;;;3.47;2.35;;;25.00;1.00;;;;;;6118991;23;20021;-96
2022/06/16 13:18:24;;;;;;;2.47;2.25;;;24.90;1.00;;;;;;6118652;23;19997;-94
2022/06/16 13:21:11;;;;;;;3.55;2.08;;;24.80;1.00;;;;;;6115565;23;20029;-93
2022/06/16 13:23:49;;;;;;;3.60;2.22;;;25.10;1.00;;;;;;6146657;23;20017;-93
2022/06/16 13:26:16;;;;;;;2.88;2.20;;;25.80;1.00;;;;;;6135547;23;20101;-91
2022/06/16 13:29:01;;;;;;;3.47;1.90;;;25.40;1.00;;;;;;6105684;23;20021;-91
2022/06/16 13:31:46;;;;;;;3.42;2.20;;;25.20;1.00;;;;;;6105180;23;20017;-91
2022/06/16 13:34:21;;;;;;;2.25;1.90;;;24.70;1.00;;;;;;6131186;23;20021;-94
2022/06/16 13:36:53;;;;;;;2.38;2.10;;;24.90;1.00;;;;;;6106029;23;20395;-92
2022/06/16 13:40:06;;;;;;;3.85;2.10;;;25.20;1.00;;;;;;6105190;23;20013;-91
2022/06/16 13:42:56;;;;;;;2.53;2.13;;;25.00;1.00;;;;;;6036646;23;20030;-89